Time;durP1;ratioP1;P1;durP2;ratioP2;P2;SDS_P1;SDS_P2;PMS_P1;PMS_P2;Temp;Humidity;BMP_temperature;BMP_pressure;BME280_temperature;BME280_humidity;BME280_pressure;Samples;Min_cycle;Max_cycle;Signal;HPM_P1;HPM_P2
2023/07/13 00:00:23;;;;;;;13.02;2.67;;;18.90;99.90;;;;;;4954659;28;20398;-71
2023/07/13 00:02:49;;;;;;;8.32;2.20;;;19.30;99.90;;;;;;4954748;28;20039;-71
2023/07/13 00:05:16;;;;;;;7.35;1.90;;;;;;;;;;4952675;28;20135;-71
2023/07/13 00:07:51;;;;;;;16.65;2.70;;;18.70;99.90;;;;;;4952552;28;20527;-71
2023/07/13 00:10:18;;;;;;;6.18;2.33;;;18.70;99.90;;;;;;4951639;28;20134;-71
2023/07/13 00:12:56;;;;;;;5.88;1.45;;;18.60;99.90;;;;;;4953278;28;20606;-71
2023/07/13 00:15:31;;;;;;;6.18;1.33;;;18.60;99.90;;;;;;4956755;28;20043;-71
2023/07/13 00:18:06;;;;;;;3.15;1.13;;;18.80;99.90;;;;;;4957278;28;20046;-71
2023/07/13 00:20:33;;;;;;;7.32;1.75;;;18.70;99.90;;;;;;4956399;28;20043;-71
2023/07/13 00:23:17;;;;;;;5.25;1.52;;;18.70;99.90;;;;;;4955850;28;20106;-71
2023/07/13 00:25:56;;;;;;;4.63;1.15;;;18.50;99.90;;;;;;4956613;28;20160;-71
2023/07/13 00:28:30;;;;;;;4.43;1.20;;;18.60;99.90;;;;;;4957279;28;20057;-71
2023/07/13 00:31:02;;;;;;;5.20;1.35;;;18.50;99.90;;;;;;4954386;28;20098;-71
2023/07/13 00:33:47;;;;;;;4.53;1.08;;;18.50;99.90;;;;;;4955598;28;20047;-70
2023/07/13 00:36:16;;;;;;;6.43;1.17;;;;;;;;;;4955580;28;20094;-71
2023/07/13 00:39:03;;;;;;;;;;;;;;;;;;;;;
2023/07/13 00:41:36;;;;;;;6.68;2.10;;;18.40;99.90;;;;;;4954553;28;20040;-70
2023/07/13 00:44:30;;;;;;;5.13;1.90;;;18.50;99.90;;;;;;4955497;28;20043;-72
2023/07/13 00:46:59;;;;;;;5.00;1.30;;;;;;;;;;4955584;28;20041;-71
2023/07/13 00:49:52;;;;;;;5.43;1.35;;;18.40;99.90;;;;;;4955314;28;20418;-70
2023/07/13 00:52:22;;;;;;;7.72;1.40;;;18.30;99.90;;;;;;4957524;28;20487;-71
2023/07/13 00:55:00;;;;;;;5.63;1.35;;;18.20;99.90;;;;;;4941459;29;20106;-71
2023/07/13 00:57:43;;;;;;;5.78;1.92;;;18.20;99.90;;;;;;4942599;28;20042;-70
2023/07/13 01:00:14;;;;;;;4.82;1.75;;;18.10;99.90;;;;;;4942321;29;20043;-71
2023/07/13 01:02:49;;;;;;;5.75;1.73;;;18.30;99.90;;;;;;4957526;28;20051;-70
2023/07/13 01:05:19;;;;;;;6.40;1.30;;;18.10;99.90;;;;;;4956438;28;20040;-72
2023/07/13 01:08:03;;;;;;;5.38;1.27;;;18.10;99.90;;;;;;4955179;28;20093;-74
2023/07/13 01:10:44;;;;;;;5.40;1.40;;;18.10;99.90;;;;;;4954636;28;20106;-71
2023/07/13 01:13:21;;;;;;;7.35;1.52;;;18.30;99.90;;;;;;4939528;28;20579;-71
2023/07/13 01:15:54;;;;;;;4.57;1.10;;;18.20;99.90;;;;;;4955202;28;20069;-71
2023/07/13 01:18:34;;;;;;;2.17;0.85;;;18.10;99.90;;;;;;4955159;28;20090;-71
2023/07/13 01:21:13;;;;;;;3.15;0.88;;;18.20;99.90;;;;;;4955481;29;20040;-72
2023/07/13 01:24:02;;;;;;;3.50;1.13;;;18.00;99.90;;;;;;4955523;28;20052;-71
2023/07/13 01:26:31;;;;;;;5.53;0.90;;;;;;;;;;4938434;29;20053;-71
2023/07/13 01:29:10;;;;;;;;;;;;;;;;;;;;;
2023/07/13 01:31:43;;;;;;;6.68;1.50;;;17.90;99.90;;;;;;4954020;28;20527;-70
2023/07/13 01:34:20;;;;;;;3.00;0.90;;;17.70;99.90;;;;;;4956129;28;20049;-70
2023/07/13 01:36:53;;;;;;;6.22;1.27;;;18.00;99.90;;;;;;4956059;28;20090;-70
2023/07/13 01:39:23;;;;;;;2.50;0.90;;;18.00;99.90;;;;;;4938766;29;20538;-70
2023/07/13 01:41:58;;;;;;;3.17;1.40;;;17.90;99.90;;;;;;4938198;29;20047;-70
2023/07/13 01:44:34;;;;;;;3.72;0.85;;;18.00;99.90;;;;;;4955230;28;20034;-73
2023/07/13 01:47:06;;;;;;;4.55;1.08;;;17.90;99.90;;;;;;4954661;28;20043;-70
2023/07/13 01:49:34;;;;;;;6.05;1.20;;;;;;;;;;4954146;28;20047;-71
2023/07/13 01:52:07;;;;;;;5.63;1.02;;;;;;;;;;4955135;28;20046;-71
2023/07/13 01:54:44;;;;;;;4.85;1.35;;;17.70;99.90;;;;;;4969942;28;20053;-70
2023/07/13 01:57:21;;;;;;;5.28;1.45;;;17.80;99.90;;;;;;4954040;28;20051;-71
2023/07/13 01:59:52;;;;;;;3.55;0.90;;;17.70;99.90;;;;;;4953182;28;20130;-71
2023/07/13 02:02:24;;;;;;;7.30;1.58;;;18.60;99.90;;;;;;4953778;28;20089;-71
2023/07/13 02:04:56;;;;;;;6.97;1.20;;;17.60;99.90;;;;;;4954845;28;20062;-71
2023/07/13 02:07:40;;;;;;;3.90;1.33;;;17.80;99.90;;;;;;4953881;28;20047;-71
2023/07/13 02:10:13;;;;;;;4.10;1.30;;;17.50;99.90;;;;;;4954299;28;20085;-72
2023/07/13 02:12:39;;;;;;;3.17;0.77;;;;;;;;;;4954792;28;20042;-71
2023/07/13 02:15:14;;;;;;;6.47;1.40;;;17.60;99.90;;;;;;4954806;28;20035;-71
2023/07/13 02:18:01;;;;;;;;;;;;;;;;;;;;;
2023/07/13 02:20:28;;;;;;;4.55;1.30;;;;;;;;;;4954525;28;20045;-71
2023/07/13 02:22:56;;;;;;;7.82;3.20;;;17.30;99.90;;;;;;4969651;28;20051;-71
2023/07/13 02:25:31;;;;;;;7.20;1.42;;;17.40;99.90;;;;;;4953555;28;20037;-71
2023/07/13 02:28:06;;;;;;;7.00;1.58;;;17.30;99.90;;;;;;4939103;29;20047;-71
2023/07/13 02:30:40;;;;;;;4.70;1.67;;;17.30;99.90;;;;;;4921279;29;20043;-71
2023/07/13 02:33:21;;;;;;;4.07;1.55;;;17.30;99.90;;;;;;4953528;29;20496;-71
2023/07/13 02:35:51;;;;;;;8.23;2.78;;;17.20;99.90;;;;;;4937001;28;20081;-71
2023/07/13 02:38:18;;;;;;;9.25;1.83;;;;;;;;;;4953792;28;20039;-71
2023/07/13 02:40:47;;;;;;;7.10;2.03;;;17.30;99.90;;;;;;4952476;28;20094;-71
2023/07/13 02:43:15;;;;;;;5.78;2.13;;;17.30;99.90;;;;;;4952878;28;20047;-71
2023/07/13 02:45:51;;;;;;;7.07;1.90;;;17.10;99.90;;;;;;4954465;28;20093;-71
2023/07/13 02:48:30;;;;;;;8.27;2.53;;;17.10;99.90;;;;;;4953021;28;20074;-72
2023/07/13 02:51:04;;;;;;;4.80;1.80;;;;;;;;;;4935650;28;20050;-72
2023/07/13 02:53:33;;;;;;;6.85;2.35;;;;;;;;;;4953098;29;20039;-71
2023/07/13 02:56:06;;;;;;;7.72;2.22;;;17.00;99.90;;;;;;4953233;28;20066;-71
2023/07/13 02:58:41;;;;;;;9.35;2.90;;;17.30;99.90;;;;;;4953130;28;20529;-71
2023/07/13 03:01:18;;;;;;;9.00;2.33;;;17.20;99.90;;;;;;4952892;28;20047;-71
2023/07/13 03:03:46;;;;;;;9.90;2.72;;;17.10;99.90;;;;;;4954619;28;20282;-71
2023/07/13 03:06:21;;;;;;;12.82;2.97;;;17.00;99.90;;;;;;4955227;28;20043;-71
2023/07/13 03:09:12;;;;;;;5.90;2.53;;;17.00;99.90;;;;;;4937330;29;20078;-70
2023/07/13 03:11:39;;;;;;;14.73;3.13;;;;;;;;;;4952834;28;20047;-70
2023/07/13 03:14:15;;;;;;;15.40;3.42;;;17.20;99.90;;;;;;4953186;28;20062;-70
2023/07/13 03:16:58;;;;;;;8.10;2.30;;;17.30;99.90;;;;;;4937073;29;20142;-70
2023/07/13 03:19:28;;;;;;;11.95;3.25;;;;;;;;;;4936972;29;20150;-70
2023/07/13 03:21:56;;;;;;;11.00;2.90;;;17.20;99.90;;;;;;4968201;28;20519;-70
2023/07/13 03:24:52;;;;;;;11.45;3.00;;;17.10;99.90;;;;;;4937080;28;20574;-70
2023/07/13 03:27:30;;;;;;;12.18;3.08;;;17.20;99.90;;;;;;4939053;28;20571;-70
2023/07/13 03:29:59;;;;;;;13.60;2.78;;;17.10;99.90;;;;;;4952176;28;20054;-70
2023/07/13 03:32:38;;;;;;;12.55;3.10;;;16.70;99.90;;;;;;4952777;28;20059;-70
2023/07/13 03:35:08;;;;;;;13.95;3.45;;;;;;;;;;4953898;28;20118;-71
2023/07/13 03:37:43;;;;;;;10.30;3.10;;;17.00;99.90;;;;;;4968716;28;20039;-70
2023/07/13 03:40:30;;;;;;;15.90;4.07;;;17.00;99.90;;;;;;4952245;28;20522;-71
2023/07/13 03:43:06;;;;;;;10.90;2.92;;;17.20;99.90;;;;;;4952289;29;20083;-70
2023/07/13 03:45:40;;;;;;;13.85;4.15;;;17.10;99.90;;;;;;4936201;29;20058;-70
2023/07/13 03:48:11;;;;;;;10.23;2.72;;;17.10;99.90;;;;;;4938450;29;20043;-70
2023/07/13 03:50:43;;;;;;;15.98;3.97;;;17.10;99.90;;;;;;4940392;29;20047;-71
2023/07/13 03:53:12;;;;;;;19.30;3.80;;;16.90;99.90;;;;;;4956484;28;20047;-70
2023/07/13 03:55:41;;;;;;;13.52;3.20;;;17.00;99.90;;;;;;4972236;28;20233;-70
2023/07/13 03:58:33;;;;;;;9.95;2.50;;;17.10;99.90;;;;;;4957153;28;20047;-70
2023/07/13 04:01:08;;;;;;;12.80;3.10;;;17.20;99.90;;;;;;4939847;29;20083;-70
2023/07/13 04:03:35;;;;;;;13.25;3.40;;;;;;;;;;4940300;29;20471;-70
2023/07/13 04:06:14;;;;;;;13.00;3.10;;;17.00;99.90;;;;;;4956059;28;20069;-70
2023/07/13 04:08:50;;;;;;;11.65;3.08;;;17.30;99.90;;;;;;4956378;28;20043;-70
2023/07/13 04:11:20;;;;;;;12.52;2.83;;;17.20;99.90;;;;;;4956567;28;20101;-70
2023/07/13 04:13:55;;;;;;;15.18;3.03;;;17.40;99.90;;;;;;4955713;28;20432;-71
2023/07/13 04:16:22;;;;;;;12.55;3.70;;;17.20;99.90;;;;;;4955387;28;20042;-70
2023/07/13 04:18:57;;;;;;;12.90;2.70;;;17.50;99.90;;;;;;4956863;28;20074;-70
2023/07/13 04:21:37;;;;;;;9.05;2.60;;;17.30;99.90;;;;;;4955528;28;20047;-71
2023/07/13 04:24:09;;;;;;;17.00;3.50;;;17.30;99.90;;;;;;4955755;28;20460;-70
2023/07/13 04:26:43;;;;;;;10.05;2.83;;;;;;;;;;4956776;28;20130;-71
2023/07/13 04:29:10;;;;;;;15.25;2.92;;;;;;;;;;4956105;28;20126;-70
2023/07/13 04:31:43;;;;;;;13.82;3.67;;;17.40;99.90;;;;;;4971395;28;20043;-70
2023/07/13 04:34:17;;;;;;;10.73;2.50;;;17.40;99.90;;;;;;4957247;28;20463;-70
2023/07/13 04:36:48;;;;;;;10.70;3.03;;;17.40;99.90;;;;;;4957594;28;20042;-70
2023/07/13 04:39:14;;;;;;;9.35;2.50;;;;;;;;;;4957192;28;20090;-70
2023/07/13 04:41:49;;;;;;;7.90;2.33;;;17.50;99.90;;;;;;4956714;28;20483;-70
2023/07/13 04:44:18;;;;;;;7.68;2.25;;;17.60;99.90;;;;;;4939523;29;20522;-70
2023/07/13 04:46:44;;;;;;;7.72;2.55;;;17.70;99.90;;;;;;4955271;28;20039;-70
2023/07/13 04:49:13;;;;;;;7.88;2.75;;;;;;;;;;4955075;28;20050;-70
2023/07/13 04:51:42;;;;;;;11.05;2.58;;;;;;;;;;4954420;28;20044;-70
2023/07/13 04:54:18;;;;;;;10.35;2.15;;;17.90;99.90;;;;;;4955061;28;20067;-70
2023/07/13 04:56:54;;;;;;;10.60;2.42;;;16.20;99.90;;;;;;4955985;28;20047;-71
2023/07/13 04:59:20;;;;;;;12.35;3.15;;;17.80;99.90;;;;;;4937929;29;20485;-70
2023/07/13 05:01:59;;;;;;;10.70;2.97;;;17.80;99.90;;;;;;4955619;28;20573;-70
2023/07/13 05:04:28;;;;;;;11.35;2.83;;;;;;;;;;4956281;28;20039;-70
2023/07/13 05:07:02;;;;;;;11.68;2.60;;;17.90;99.90;;;;;;4955298;28;20074;-70
2023/07/13 05:09:38;;;;;;;8.38;2.40;;;17.90;99.90;;;;;;4955892;28;20050;-70
2023/07/13 05:12:07;;;;;;;10.23;3.10;;;18.00;99.90;;;;;;4956317;28;20419;-70
2023/07/13 05:14:39;;;;;;;9.88;2.80;;;18.10;99.90;;;;;;4954668;28;20046;-71
2023/07/13 05:17:09;;;;;;;11.02;3.10;;;;;;;;;;4954581;28;20054;-70
2023/07/13 05:19:38;;;;;;;13.02;3.15;;;;;;;;;;4969934;28;20051;-70
2023/07/13 05:22:09;;;;;;;7.35;2.92;;;;;;;;;;4955970;28;20381;-70
2023/07/13 05:24:39;;;;;;;4.70;2.40;;;18.20;99.90;;;;;;4955742;28;20050;-70
2023/07/13 05:27:05;;;;;;;6.57;2.00;;;18.20;99.90;;;;;;4954791;28;20749;-70
2023/07/13 05:29:37;;;;;;;12.10;2.85;;;;;;;;;;4954914;28;20049;-71
2023/07/13 05:32:06;;;;;;;12.02;2.35;;;;;;;;;;4954824;28;20106;-70
2023/07/13 05:34:41;;;;;;;9.85;3.03;;;18.40;99.90;;;;;;4955765;28;20050;-70
2023/07/13 05:37:13;;;;;;;12.70;2.65;;;18.40;99.90;;;;;;4954605;28;20463;-70
2023/07/13 05:39:40;;;;;;;11.48;2.45;;;;;;;;;;4953400;28;20124;-70
2023/07/13 05:42:13;;;;;;;8.02;2.45;;;18.50;99.90;;;;;;4970322;28;20415;-71
2023/07/13 05:44:57;;;;;;;11.02;3.03;;;18.40;99.90;;;;;;4970077;28;20107;-70
2023/07/13 05:47:25;;;;;;;6.90;1.95;;;18.40;99.90;;;;;;4937344;28;20047;-71
2023/07/13 05:49:57;;;;;;;10.65;2.28;;;;;;;;;;4954669;28;20039;-71
2023/07/13 05:52:42;;;;;;;9.82;2.67;;;18.80;99.90;;;;;;4953892;28;20126;-70
2023/07/13 05:55:16;;;;;;;8.73;2.22;;;18.80;99.90;;;;;;4938788;29;20051;-72
2023/07/13 05:57:57;;;;;;;11.35;2.67;;;18.90;99.90;;;;;;4954044;28;20504;-71
2023/07/13 06:00:39;;;;;;;;;;;;;;;;;;;;;
2023/07/13 06:03:12;;;;;;;7.28;2.65;;;18.90;99.90;;;;;;4953879;28;20059;-72
2023/07/13 06:05:39;;;;;;;7.35;2.30;;;;;;;;;;4954882;28;20130;-71
2023/07/13 06:08:17;;;;;;;8.70;2.72;;;19.00;99.90;;;;;;4954077;28;20054;-71
2023/07/13 06:10:58;;;;;;;8.57;2.25;;;19.10;99.90;;;;;;4938444;28;20050;-71
2023/07/13 06:13:33;;;;;;;8.43;2.47;;;;;;;;;;4938251;29;20043;-72
2023/07/13 06:16:18;;;;;;;12.45;3.10;;;19.40;99.90;;;;;;4953706;28;20049;-71
2023/07/13 06:18:52;;;;;;;9.67;2.60;;;;;;;;;;4953794;28;20087;-71
2023/07/13 06:21:38;;;;;;;10.68;2.55;;;19.60;99.90;;;;;;4952708;28;20496;-71
2023/07/13 06:24:18;;;;;;;9.68;2.70;;;19.90;99.90;;;;;;4955035;28;20039;-71
2023/07/13 06:26:50;;;;;;;9.38;2.80;;;19.60;99.90;;;;;;4954752;28;20058;-71
2023/07/13 06:29:19;;;;;;;11.98;2.60;;;19.60;99.90;;;;;;4937245;29;20134;-70
2023/07/13 06:31:53;;;;;;;14.82;3.53;;;;;;;;;;4937584;29;20051;-70
2023/07/13 06:34:38;;;;;;;9.43;2.42;;;19.10;99.90;;;;;;4953499;28;20411;-70
2023/07/13 06:37:10;;;;;;;8.63;2.65;;;18.90;99.90;;;;;;4937534;29;20053;-70
2023/07/13 06:39:38;;;;;;;9.80;2.80;;;18.00;99.90;;;;;;4936976;29;20533;-70
2023/07/13 06:42:11;;;;;;;7.35;2.45;;;18.90;99.90;;;;;;4952921;28;20055;-71
2023/07/13 06:44:44;;;;;;;10.07;2.72;;;18.70;99.90;;;;;;4954619;28;20054;-70
2023/07/13 06:47:13;;;;;;;11.48;2.95;;;18.80;99.90;;;;;;4968940;28;20043;-70
2023/07/13 06:49:43;;;;;;;9.48;2.50;;;18.60;99.90;;;;;;4954126;28;20043;-69
2023/07/13 06:52:22;;;;;;;10.20;2.33;;;18.80;99.90;;;;;;4937310;29;20043;-70
2023/07/13 06:54:51;;;;;;;10.13;3.22;;;;;;;;;;4953461;28;20126;-70
2023/07/13 06:57:29;;;;;;;9.48;2.90;;;18.80;99.90;;;;;;4968978;28;20043;-70
2023/07/13 07:00:12;;;;;;;7.45;2.55;;;19.20;99.90;;;;;;4952142;28;20051;-69
2023/07/13 07:02:44;;;;;;;7.25;2.78;;;;;;;;;;4953282;28;20408;-69
2023/07/13 07:06:09;;;;;;;17.88;2.83;;;19.40;99.90;;;;;;4953914;28;20051;-70
2023/07/13 07:08:51;;;;;;;;;;;;;;;;;;;;;
2023/07/13 07:11:22;;;;;;;11.10;2.65;;;19.20;99.90;;;;;;4952495;28;20047;-70
2023/07/13 07:14:07;;;;;;;11.70;3.05;;;18.80;99.90;;;;;;4952686;28;20423;-70
2023/07/13 07:16:43;;;;;;;9.32;3.67;;;18.60;99.90;;;;;;4953915;28;20492;-70
2023/07/13 07:19:30;;;;;;;11.98;3.70;;;18.60;99.90;;;;;;4952751;28;20047;-71
2023/07/13 07:22:32;;;;;;;;;;;;;;;;;;;;;
2023/07/13 07:25:25;;;;;;;10.32;2.83;;;18.50;99.90;;;;;;4956642;28;20043;-74
2023/07/13 07:28:52;;;;;;;9.00;2.70;;;18.90;99.90;;;;;;4946729;28;20074;-72
2023/07/13 07:31:28;;;;;;;9.35;3.10;;;18.70;99.90;;;;;;4927284;29;20116;-70
2023/07/13 07:34:19;;;;;;;10.32;2.80;;;18.90;99.90;;;;;;4940065;29;20055;-71
2023/07/13 07:37:02;;;;;;;7.68;2.60;;;18.90;99.90;;;;;;4940678;29;20417;-71
2023/07/13 07:39:53;;;;;;;7.47;2.08;;;19.30;99.90;;;;;;4940540;29;20047;-71
2023/07/13 07:42:30;;;;;;;8.43;2.50;;;19.10;99.90;;;;;;4955778;28;20384;-69
2023/07/13 07:45:04;;;;;;;4.05;1.90;;;;;;;;;;4940966;29;20113;-73
2023/07/13 07:48:04;;;;;;;;;;;;;;;;;;;;;
2023/07/13 07:50:54;;;;;;;7.10;2.10;;;19.50;99.90;;;;;;4955580;28;20106;-71
2023/07/13 07:53:31;;;;;;;6.25;2.10;;;;;;;;;;4949310;28;20137;-71
2023/07/13 07:56:34;;;;;;;5.32;1.90;;;19.60;99.90;;;;;;4956567;28;20039;-71
2023/07/13 07:59:20;;;;;;;6.65;1.80;;;19.60;99.90;;;;;;4940591;28;20047;-70
2023/07/13 08:01:52;;;;;;;9.82;1.90;;;;;;;;;;4940561;29;20058;-70
2023/07/13 08:04:26;;;;;;;9.35;2.38;;;20.00;99.90;;;;;;4955708;28;20182;-70
2023/07/13 08:06:58;;;;;;;5.82;1.83;;;19.90;99.90;;;;;;4939924;29;20039;-70
2023/07/13 08:09:44;;;;;;;8.38;2.55;;;20.00;99.90;;;;;;4939836;29;20039;-73
2023/07/13 08:12:19;;;;;;;5.35;2.50;;;20.50;99.90;;;;;;4940426;29;20491;-70
2023/07/13 08:17:41;;;;;;;5.38;2.47;;;;;;;;;;4948073;28;20054;-70
2023/07/13 08:23:06;;;;;;;6.97;1.80;;;20.40;99.90;;;;;;4947384;28;20507;-70
2023/07/13 08:26:08;;;;;;;4.63;1.98;;;20.40;99.90;;;;;;4939734;29;20039;-72
2023/07/13 08:29:03;;;;;;;5.75;1.90;;;19.90;99.90;;;;;;4920393;29;20051;-70
2023/07/13 08:32:11;;;;;;;5.30;1.40;;;20.20;99.90;;;;;;4939946;29;20093;-69
2023/07/13 08:34:52;;;;;;;6.03;1.85;;;20.40;99.90;;;;;;4954960;28;20047;-70
2023/07/13 08:37:36;;;;;;;9.60;2.92;;;20.30;99.90;;;;;;4941497;28;20035;-69
2023/07/13 08:44:00;;;;;;;7.90;2.20;;;20.30;99.90;;;;;;4950289;28;20491;-70
2023/07/13 08:46:53;;;;;;;6.88;2.00;;;20.20;99.90;;;;;;4955182;29;20121;-70
2023/07/13 08:49:40;;;;;;;5.43;1.83;;;20.20;99.90;;;;;;4955201;28;20039;-71
2023/07/13 08:52:35;;;;;;;3.03;2.05;;;20.30;99.90;;;;;;4939469;29;20086;-71
2023/07/13 08:55:37;;;;;;;6.88;2.38;;;20.70;99.90;;;;;;4939428;29;20047;-70
2023/07/13 08:58:18;;;;;;;8.68;2.25;;;20.90;99.90;;;;;;4939452;29;20051;-71
2023/07/13 09:01:31;;;;;;;2.83;1.80;;;21.20;99.90;;;;;;4936372;29;20055;-70
2023/07/13 09:04:42;;;;;;;7.70;1.83;;;21.10;99.90;;;;;;4936172;29;20523;-70
2023/07/13 09:07:54;;;;;;;3.42;1.83;;;21.30;99.90;;;;;;4952890;28;20055;-70
2023/07/13 09:11:12;;;;;;;7.85;1.50;;;21.60;99.90;;;;;;4944606;28;20051;-70
2023/07/13 09:14:23;;;;;;;8.10;1.83;;;21.60;99.90;;;;;;4954522;28;20047;-70
2023/07/13 09:17:08;;;;;;;;;;;;;;;;;;;;;
2023/07/13 09:20:15;;;;;;;4.00;1.35;;;21.80;99.90;;;;;;4954372;28;20102;-71
2023/07/13 09:22:53;;;;;;;6.70;1.50;;;21.70;99.90;;;;;;4894489;28;20090;-71
2023/07/13 09:26:18;;;;;;;;;;;;;;;;;;;;;
2023/07/13 09:28:54;;;;;;;1.92;1.15;;;21.70;99.90;;;;;;4955848;28;20047;-70
2023/07/13 09:34:57;;;;;;;2.28;1.15;;;21.50;99.90;;;;;;4944312;28;20043;-72
2023/07/13 09:37:51;;;;;;;;;;;;;;;;;;;;;
2023/07/13 09:40:48;;;;;;;3.80;1.20;;;21.50;99.90;;;;;;4953496;28;20043;-70
2023/07/13 09:43:47;;;;;;;;;;;;;;;;;;;;;
2023/07/13 09:50:33;;;;;;;;;;;;;;;;;;;;;
2023/07/13 09:53:46;;;;;;;3.92;0.93;;;21.30;99.90;;;;;;4954997;28;20431;-70
2023/07/13 09:56:45;;;;;;;5.57;1.42;;;21.40;99.90;;;;;;4913041;29;20494;-70
2023/07/13 09:59:28;;;;;;;;;;;19.50;99.90;;;;;;4954127;28;20051;-70
2023/07/13 10:02:39;;;;;;;2.90;1.52;;;22.20;99.90;;;;;;4953357;28;19960;-71
2023/07/13 10:05:57;;;;;;;3.55;1.13;;;22.40;99.90;;;;;;4939332;29;20070;-71
2023/07/13 10:09:02;;;;;;;7.50;1.60;;;21.60;99.90;;;;;;4952180;28;20065;-71
2023/07/13 10:11:32;;;;;;;4.78;1.35;;;21.50;99.90;;;;;;4925308;29;20058;-73
2023/07/13 10:14:35;;;;;;;1.90;1.00;;;21.70;99.90;;;;;;4953971;28;20121;-70
2023/07/13 10:17:23;;;;;;;4.13;0.90;;;21.90;99.90;;;;;;4906457;29;20094;-70
2023/07/13 10:20:14;;;;;;;5.72;1.20;;;21.90;99.90;;;;;;4954446;28;20043;-71
2023/07/13 10:26:32;;;;;;;2.72;0.95;;;22.30;99.90;;;;;;4918622;28;20050;-71
2023/07/13 10:29:11;;;;;;;5.45;1.70;;;22.60;99.90;;;;;;4937668;28;20075;-71
2023/07/13 10:31:58;;;;;;;;;;;;;;;;;;;;;
2023/07/13 10:38:02;;;;;;;;;;;;;;;;;;;;;
2023/07/13 10:41:26;;;;;;;2.60;1.00;;;22.10;99.90;;;;;;4936333;28;20134;-71
2023/07/13 10:44:47;;;;;;;4.63;1.83;;;22.40;99.90;;;;;;4864634;29;20184;-71
2023/07/13 10:47:58;;;;;;;3.70;1.15;;;22.70;99.90;;;;;;4879369;29;20045;-71
2023/07/13 10:50:58;;;;;;;;;;;;;;;;;;;;;
2023/07/13 10:55:00;;;;;;;2.72;1.25;;;23.20;99.90;;;;;;4953569;28;20205;-72
2023/07/13 11:00:18;;;;;;;7.63;1.67;;;22.00;99.90;;;;;;4990397;28;20047;-69
2023/07/13 11:03:02;;;;;;;4.55;1.35;;;22.80;99.90;;;;;;4975405;28;20133;-69
2023/07/13 11:05:33;;;;;;;5.07;1.40;;;22.30;99.90;;;;;;4974941;28;20034;-69
2023/07/13 11:08:04;;;;;;;2.05;1.52;;;22.50;99.90;;;;;;4958716;28;20030;-69
2023/07/13 11:10:51;;;;;;;5.70;1.55;;;22.10;99.90;;;;;;4974559;28;20050;-69
2023/07/13 11:13:45;;;;;;;6.50;1.15;;;22.50;99.90;;;;;;4974806;28;20506;-69
2023/07/13 11:16:20;;;;;;;5.35;2.10;;;22.50;99.90;;;;;;4974744;28;20100;-68
2023/07/13 11:18:49;;;;;;;7.57;1.80;;;22.50;99.90;;;;;;4974592;28;20130;-68
2023/07/13 11:21:21;;;;;;;4.78;1.23;;;22.50;99.90;;;;;;4991885;28;20049;-69
2023/07/13 11:24:01;;;;;;;5.30;1.27;;;22.90;99.90;;;;;;4990844;28;20049;-69
2023/07/13 11:26:45;;;;;;;2.67;1.25;;;23.20;99.90;;;;;;4974808;28;20121;-68
2023/07/13 11:29:17;;;;;;;5.05;1.52;;;23.00;99.90;;;;;;4991938;28;20054;-71
2023/07/13 11:31:50;;;;;;;6.97;1.58;;;22.80;99.90;;;;;;4974044;28;20053;-69
2023/07/13 11:34:30;;;;;;;5.10;1.30;;;22.80;99.90;;;;;;4992131;28;20089;-68
2023/07/13 11:36:57;;;;;;;4.47;1.35;;;22.90;99.90;;;;;;4992205;28;20082;-69
2023/07/13 11:39:30;;;;;;;8.65;1.60;;;22.80;99.90;;;;;;4974347;28;20085;-69
2023/07/13 11:42:03;;;;;;;4.18;1.60;;;23.50;99.90;;;;;;4973968;28;20121;-69
2023/07/13 11:44:31;;;;;;;4.45;1.10;;;23.70;99.90;;;;;;4974426;28;20046;-70
2023/07/13 11:47:08;;;;;;;4.78;1.27;;;23.80;99.90;;;;;;4974520;28;20043;-69
2023/07/13 11:49:43;;;;;;;3.42;1.27;;;23.00;99.80;;;;;;4958580;28;20132;-69
2023/07/13 11:52:21;;;;;;;5.13;1.20;;;22.90;99.90;;;;;;4974348;28;20042;-69
2023/07/13 11:54:55;;;;;;;6.25;1.27;;;22.80;99.70;;;;;;4990931;28;20466;-69
2023/07/13 11:57:35;;;;;;;3.83;1.50;;;22.80;99.90;;;;;;4991976;28;20410;-69
2023/07/13 12:00:11;;;;;;;3.10;1.20;;;22.80;99.50;;;;;;4973574;28;20039;-69
2023/07/13 12:02:41;;;;;;;3.25;1.17;;;22.90;99.90;;;;;;4974505;28;20418;-69
2023/07/13 12:05:12;;;;;;;4.53;1.20;;;22.50;99.90;;;;;;4974518;28;20046;-69
2023/07/13 12:07:38;;;;;;;4.60;1.30;;;23.10;99.90;;;;;;4991790;28;20505;-68
2023/07/13 12:10:19;;;;;;;4.93;1.67;;;22.90;99.90;;;;;;4976500;28;20038;-69
2023/07/13 12:12:55;;;;;;;4.03;1.40;;;23.10;99.70;;;;;;4977659;28;20039;-69
2023/07/13 12:15:22;;;;;;;2.72;1.00;;;23.40;99.90;;;;;;4977647;28;20046;-68
2023/07/13 12:17:48;;;;;;;3.08;1.30;;;23.50;99.90;;;;;;4961760;28;20045;-69
2023/07/13 12:20:25;;;;;;;5.75;1.20;;;23.80;99.90;;;;;;4977032;28;20065;-69
2023/07/13 12:22:51;;;;;;;5.28;1.05;;;23.60;99.80;;;;;;4977548;28;20042;-69
2023/07/13 12:25:18;;;;;;;4.32;1.20;;;23.70;99.50;;;;;;4977395;28;20035;-69
2023/07/13 12:27:49;;;;;;;4.50;1.25;;;23.80;99.30;;;;;;4977506;28;20047;-68
2023/07/13 12:30:29;;;;;;;3.67;1.20;;;23.60;99.20;;;;;;4993468;28;20053;-69
2023/07/13 12:33:12;;;;;;;6.88;2.10;;;23.30;99.90;;;;;;4994836;28;20042;-69
2023/07/13 12:35:47;;;;;;;6.63;1.42;;;23.00;99.90;;;;;;4977287;28;20038;-69
2023/07/13 12:38:13;;;;;;;5.38;1.60;;;23.00;99.90;;;;;;4977246;28;20129;-69
2023/07/13 12:40:40;;;;;;;6.78;1.67;;;23.00;99.30;;;;;;4976791;28;20137;-69
2023/07/13 12:43:14;;;;;;;6.28;1.60;;;23.10;99.80;;;;;;4977216;28;20096;-69
2023/07/13 12:46:04;;;;;;;4.78;1.38;;;23.20;99.60;;;;;;4977245;28;20506;-69
2023/07/13 12:48:38;;;;;;;6.63;1.38;;;23.20;99.60;;;;;;4977021;28;20085;-69
2023/07/13 12:51:04;;;;;;;7.90;1.98;;;23.20;99.90;;;;;;4976167;28;20045;-69
2023/07/13 12:53:33;;;;;;;5.18;1.52;;;22.80;99.90;;;;;;4977377;28;20034;-69
2023/07/13 12:56:03;;;;;;;4.95;1.55;;;23.10;99.90;;;;;;4976928;28;20038;-69
2023/07/13 12:58:45;;;;;;;6.53;2.22;;;22.90;99.90;;;;;;4976638;28;20051;-69
2023/07/13 13:01:13;;;;;;;6.80;2.00;;;22.90;99.90;;;;;;4992598;28;20038;-69
2023/07/13 13:03:45;;;;;;;4.00;1.38;;;22.60;99.90;;;;;;4976858;28;20277;-69
2023/07/13 13:06:18;;;;;;;5.13;1.20;;;22.90;99.90;;;;;;4960854;28;20034;-69
2023/07/13 13:08:48;;;;;;;3.35;1.38;;;23.20;99.90;;;;;;4993001;28;20573;-69
2023/07/13 13:11:16;;;;;;;2.60;1.10;;;23.40;99.90;;;;;;4976382;28;20030;-70
2023/07/13 13:13:42;;;;;;;7.55;2.00;;;23.10;99.90;;;;;;4992978;28;20061;-70
2023/07/13 13:16:26;;;;;;;3.70;1.30;;;23.10;99.90;;;;;;4977052;28;20536;-69
2023/07/13 13:18:56;;;;;;;8.30;2.00;;;23.10;99.90;;;;;;4976714;28;20045;-69
2023/07/13 13:21:23;;;;;;;3.03;1.40;;;23.30;99.50;;;;;;4959185;28;20078;-69
2023/07/13 13:23:51;;;;;;;7.35;1.92;;;23.10;99.30;;;;;;4976544;28;20077;-69
2023/07/13 13:26:18;;;;;;;4.25;2.10;;;23.20;99.30;;;;;;4976547;28;20042;-69
2023/07/13 13:28:44;;;;;;;5.63;1.23;;;23.20;99.50;;;;;;4976242;28;20038;-70
2023/07/13 13:31:15;;;;;;;3.40;1.50;;;23.40;99.40;;;;;;4975717;28;20039;-69
2023/07/13 13:33:43;;;;;;;5.05;1.95;;;23.30;99.50;;;;;;4976358;28;20026;-69
2023/07/13 13:36:19;;;;;;;3.25;1.25;;;23.20;99.50;;;;;;4976292;28;20042;-69
2023/07/13 13:38:45;;;;;;;7.35;2.30;;;23.60;99.90;;;;;;4976027;28;20125;-69
2023/07/13 13:41:13;;;;;;;5.20;1.65;;;23.40;99.90;;;;;;4975880;28;20054;-69
2023/07/13 13:43:40;;;;;;;7.20;1.45;;;23.10;99.40;;;;;;4976395;28;20038;-69
2023/07/13 13:46:13;;;;;;;8.68;1.77;;;23.00;99.50;;;;;;4975993;28;20510;-69
2023/07/13 13:48:39;;;;;;;8.27;1.73;;;22.90;99.70;;;;;;4976011;28;20034;-69
2023/07/13 13:51:25;;;;;;;4.40;1.30;;;23.20;99.60;;;;;;4975722;28;20040;-67
2023/07/13 13:53:53;;;;;;;6.75;1.77;;;23.50;99.90;;;;;;4975778;28;20157;-69
2023/07/13 13:56:19;;;;;;;5.55;2.05;;;23.80;99.90;;;;;;4975849;28;20045;-69
2023/07/13 13:58:46;;;;;;;7.05;1.92;;;23.80;99.80;;;;;;4975659;28;20049;-69
2023/07/13 14:01:24;;;;;;;5.80;1.55;;;23.40;99.60;;;;;;4991546;28;20072;-69
2023/07/13 14:03:53;;;;;;;6.45;1.30;;;23.70;99.90;;;;;;4975868;28;20482;-69
2023/07/13 14:06:20;;;;;;;8.23;1.75;;;23.30;99.20;;;;;;4975892;28;20039;-69
2023/07/13 14:08:47;;;;;;;6.55;1.77;;;23.50;99.90;;;;;;4975857;28;20042;-69
2023/07/13 14:11:18;;;;;;;8.63;1.85;;;23.20;99.70;;;;;;4974950;28;20554;-69
2023/07/13 14:13:55;;;;;;;7.60;1.88;;;23.30;99.90;;;;;;4975588;28;20084;-69
2023/07/13 14:16:22;;;;;;;9.32;2.03;;;23.10;99.60;;;;;;4975758;28;20498;-69
2023/07/13 14:18:49;;;;;;;5.35;1.88;;;23.10;99.40;;;;;;4975309;28;20097;-68
2023/07/13 14:21:19;;;;;;;3.60;1.65;;;23.40;99.90;;;;;;4974796;28;20593;-69
2023/07/13 14:23:46;;;;;;;7.38;2.10;;;23.60;99.50;;;;;;4975702;28;20035;-69
2023/07/13 14:26:17;;;;;;;5.55;1.40;;;23.20;99.40;;;;;;4975452;28;20410;-69
2023/07/13 14:28:45;;;;;;;7.47;1.83;;;23.00;99.90;;;;;;4975309;28;20044;-69
2023/07/13 14:31:13;;;;;;;5.88;2.10;;;22.90;99.90;;;;;;4974703;28;20041;-69
2023/07/13 14:33:39;;;;;;;6.10;1.77;;;22.90;99.90;;;;;;4991955;28;20050;-69
2023/07/13 14:36:29;;;;;;;9.15;1.67;;;22.80;99.90;;;;;;4975170;28;20412;-69
2023/07/13 14:39:06;;;;;;;7.60;2.05;;;22.80;99.70;;;;;;4975053;28;20085;-69